Time;durP1;ratioP1;P1;durP2;ratioP2;P2;SDS_P1;SDS_P2;PMS_P1;PMS_P2;Temp;Humidity;BMP_temperature;BMP_pressure;BME280_temperature;BME280_humidity;BME280_pressure;Samples;Min_cycle;Max_cycle;Signal;HPM_P1;HPM_P2
2024/01/28 00:02:05;;;;;;;4.15;2.30;;;;;;;1.64;61.03;95689.38;5073624;28;20031;-66
2024/01/28 00:04:31;;;;;;;4.85;2.40;;;;;;;1.61;60.62;95697.16;5072280;28;20534;-66
2024/01/28 00:06:56;;;;;;;3.28;2.25;;;;;;;1.50;60.34;95668.53;5073520;28;20024;-66
2024/01/28 00:09:22;;;;;;;4.00;2.25;;;;;;;1.64;60.25;95706.47;5062468;28;20044;-66
2024/01/28 00:11:47;;;;;;;5.25;2.50;;;;;;;1.62;60.28;95711.66;5073379;28;20497;-66
2024/01/28 00:14:12;;;;;;;3.88;2.13;;;;;;;1.64;60.32;95707.31;5052840;28;20082;-66
2024/01/28 00:16:38;;;;;;;4.20;2.03;;;;;;;1.71;60.27;95711.34;5064301;28;20078;-66
2024/01/28 00:19:05;;;;;;;6.72;2.65;;;;;;;1.63;61.15;95705.66;5071969;28;20039;-66
2024/01/28 00:21:31;;;;;;;3.40;2.20;;;;;;;1.71;59.93;95715.66;5072603;28;20482;-66
2024/01/28 00:23:59;;;;;;;5.60;2.40;;;;;;;1.89;60.27;95711.59;5072434;28;20033;-66
2024/01/28 00:26:24;;;;;;;2.80;1.83;;;;;;;1.66;60.46;95705.53;5073438;28;20036;-66
2024/01/28 00:28:50;;;;;;;5.50;2.42;;;;;;;1.62;60.28;95705.72;5055084;28;20035;-66
2024/01/28 00:31:16;;;;;;;3.85;2.30;;;;;;;1.70;60.42;95719.06;5073408;28;20032;-67
2024/01/28 00:33:41;;;;;;;4.47;2.00;;;;;;;1.51;60.38;95717.16;5053877;28;20028;-66
2024/01/28 00:36:07;;;;;;;7.68;2.20;;;;;;;1.57;60.44;95723.78;5055423;28;20422;-66
2024/01/28 00:38:32;;;;;;;3.15;1.90;;;;;;;1.55;60.88;95721.25;5069705;28;20025;-66
2024/01/28 00:40:59;;;;;;;4.75;2.20;;;;;;;1.50;60.49;95722.31;5072006;28;20029;-66
2024/01/28 00:43:24;;;;;;;3.88;2.10;;;;;;;1.53;60.96;95727.31;5072018;28;20033;-67
2024/01/28 00:45:49;;;;;;;3.92;2.10;;;;;;;1.56;60.76;95720.41;5071733;28;20045;-66
2024/01/28 00:48:15;;;;;;;3.50;2.10;;;;;;;1.52;61.39;95725.66;5070296;28;20031;-66
2024/01/28 00:50:40;;;;;;;5.47;2.25;;;;;;;1.57;60.63;95726.34;5072772;28;20043;-66
2024/01/28 00:53:05;;;;;;;3.00;2.20;;;;;;;1.55;60.77;95728.94;5073054;28;20031;-66
2024/01/28 00:55:31;;;;;;;5.75;2.28;;;;;;;1.51;61.42;95735.06;5063384;28;20508;-66
2024/01/28 00:57:57;;;;;;;4.15;2.30;;;;;;;1.51;60.97;95729.13;5051901;28;20147;-66
2024/01/28 01:00:23;;;;;;;5.78;2.42;;;;;;;1.45;61.64;95724.19;5068577;28;20422;-66
2024/01/28 01:02:48;;;;;;;4.55;2.80;;;;;;;1.47;61.34;95727.53;5073123;28;20527;-67
2024/01/28 01:05:14;;;;;;;4.13;2.38;;;;;;;1.49;61.57;95724.03;5072727;28;20040;-66
2024/01/28 01:07:39;;;;;;;5.88;2.58;;;;;;;1.39;61.77;95714.13;5071887;28;20048;-66
2024/01/28 01:10:05;;;;;;;3.60;2.47;;;;;;;1.56;62.01;95732.34;5072133;28;20033;-66
2024/01/28 01:12:30;;;;;;;5.97;2.90;;;;;;;1.46;61.26;95736.94;5071668;28;20029;-67
2024/01/28 01:14:56;;;;;;;4.85;2.33;;;;;;;1.46;62.09;95734.38;5061997;28;20449;-66
2024/01/28 01:17:21;;;;;;;4.38;2.25;;;;;;;1.27;62.17;95720.50;5069887;28;20082;-66
2024/01/28 01:19:47;;;;;;;5.00;2.22;;;;;;;1.44;62.10;95723.34;5054873;28;20029;-66
2024/01/28 01:22:12;;;;;;;4.00;2.80;;;;;;;1.46;62.32;95723.31;5071533;28;20051;-66
2024/01/28 01:24:38;;;;;;;4.13;2.47;;;;;;;1.32;61.99;95719.47;5071015;28;20493;-66
2024/01/28 01:27:04;;;;;;;5.13;2.80;;;;;;;1.36;62.61;95717.63;5072657;28;20021;-66
2024/01/28 01:29:29;;;;;;;4.63;2.53;;;;;;;1.36;62.43;95720.19;5068897;28;20036;-66
2024/01/28 01:31:55;;;;;;;5.45;2.80;;;;;;;1.42;62.33;95706.34;5071175;28;20028;-68
2024/01/28 01:34:20;;;;;;;3.17;2.05;;;;;;;1.12;63.02;95716.72;5070948;28;20052;-66
2024/01/28 01:36:46;;;;;;;4.53;2.30;;;;;;;1.25;63.31;95706.91;5071582;28;20024;-66
2024/01/28 01:39:12;;;;;;;3.58;2.28;;;;;;;1.34;62.82;95727.94;5071592;28;20559;-66
2024/01/28 01:41:37;;;;;;;5.75;2.90;;;;;;;1.29;63.16;95721.28;5050806;28;20032;-66
2024/01/28 01:44:03;;;;;;;4.88;2.90;;;;;;;1.29;63.41;95719.56;5060808;28;20505;-66
2024/01/28 01:46:29;;;;;;;3.58;2.67;;;;;;;1.22;63.27;95718.06;5070468;28;20120;-66
2024/01/28 01:48:54;;;;;;;4.97;2.88;;;;;;;1.17;63.61;95730.22;5070354;28;20409;-66
2024/01/28 01:51:21;;;;;;;5.20;3.40;;;;;;;1.23;63.85;95722.31;5062348;28;20024;-66
2024/01/28 01:53:47;;;;;;;4.00;2.80;;;;;;;1.26;63.77;95722.22;5070959;28;20070;-66
2024/01/28 01:56:12;;;;;;;4.80;2.95;;;;;;;1.13;64.29;95718.38;5066183;28;20059;-68
2024/01/28 01:58:38;;;;;;;4.80;3.10;;;;;;;1.25;63.98;95727.38;5070500;28;20395;-67
2024/01/28 02:01:03;;;;;;;6.05;3.00;;;;;;;1.21;63.84;95728.38;5070514;28;20031;-68
2024/01/28 02:03:29;;;;;;;6.55;3.35;;;;;;;1.06;63.77;95719.47;5050065;28;20055;-67
2024/01/28 02:05:54;;;;;;;6.18;3.45;;;;;;;1.14;64.43;95730.28;5067577;28;20036;-68
2024/01/28 02:08:20;;;;;;;4.28;3.13;;;;;;;1.14;64.32;95708.97;5069610;28;20414;-68
2024/01/28 02:10:45;;;;;;;5.22;3.13;;;;;;;1.08;64.50;95715.13;5053390;28;20060;-68
2024/01/28 02:13:11;;;;;;;5.68;3.38;;;;;;;1.09;64.44;95732.16;5070171;28;20462;-68
2024/01/28 02:15:39;;;;;;;10.32;3.35;;;;;;;1.22;64.28;95732.59;5069835;28;20024;-68
2024/01/28 02:18:05;;;;;;;4.97;3.05;;;;;;;1.17;64.01;95725.09;5068207;28;20492;-68
2024/01/28 02:20:31;;;;;;;4.22;2.97;;;;;;;1.30;63.87;95730.63;5053344;28;20025;-67
2024/01/28 02:22:56;;;;;;;5.82;3.08;;;;;;;1.23;64.37;95734.28;5053117;28;20033;-68
2024/01/28 02:25:22;;;;;;;7.10;2.85;;;;;;;1.18;64.33;95734.44;5070204;28;20410;-68
2024/01/28 02:27:47;;;;;;;5.07;2.92;;;;;;;1.21;63.97;95738.63;5050957;28;20031;-68
2024/01/28 02:30:13;;;;;;;6.78;3.00;;;;;;;1.00;65.00;95733.25;5071223;28;20032;-68
2024/01/28 02:32:46;;;;;;;4.28;2.90;;;;;;;1.03;64.82;95743.44;5059154;28;20033;-68
2024/01/28 02:35:12;;;;;;;5.72;2.90;;;;;;;0.96;64.93;95720.63;5046160;28;20135;-68
2024/01/28 02:37:37;;;;;;;6.60;2.97;;;;;;;1.07;64.92;95744.16;5070484;28;20024;-67
2024/01/28 02:40:04;;;;;;;6.47;3.08;;;;;;;0.99;64.85;95753.78;5069981;28;20033;-68
2024/01/28 02:42:29;;;;;;;5.03;3.03;;;;;;;0.94;65.36;95750.53;5064082;28;20028;-68
2024/01/28 02:44:54;;;;;;;4.88;3.20;;;;;;;0.83;65.18;95751.69;5053079;28;20403;-68
2024/01/28 02:47:20;;;;;;;5.15;3.00;;;;;;;0.81;65.05;95758.59;5069448;28;20417;-68
2024/01/28 02:49:46;;;;;;;4.93;3.30;;;;;;;0.92;65.12;95750.59;5069646;28;20054;-68
2024/01/28 02:52:11;;;;;;;5.55;2.80;;;;;;;1.04;64.83;95759.63;5050706;28;20037;-68
2024/01/28 02:54:36;;;;;;;5.75;2.80;;;;;;;1.09;64.79;95768.81;5068492;28;20028;-68
2024/01/28 02:57:02;;;;;;;4.68;3.05;;;;;;;1.01;65.08;95764.84;5069202;28;20090;-68
2024/01/28 02:59:27;;;;;;;5.00;2.90;;;;;;;0.96;64.86;95762.41;5061841;28;20063;-68
2024/01/28 03:01:53;;;;;;;6.50;3.15;;;;;;;0.98;65.07;95770.03;5069659;28;20033;-67
2024/01/28 03:04:18;;;;;;;5.07;3.00;;;;;;;1.00;65.02;95774.19;5070814;28;20025;-68
2024/01/28 03:06:44;;;;;;;4.47;3.00;;;;;;;0.95;65.43;95783.75;5070354;28;20036;-68
2024/01/28 03:09:09;;;;;;;7.50;3.10;;;;;;;0.89;65.21;95778.81;5043808;28;20031;-68
2024/01/28 03:11:35;;;;;;;5.00;3.38;;;;;;;1.02;64.85;95776.72;5069299;28;20539;-69
2024/01/28 03:14:00;;;;;;;4.63;3.03;;;;;;;0.91;65.07;95779.59;5058497;28;20083;-68
2024/01/28 03:16:26;;;;;;;5.60;3.10;;;;;;;0.98;64.64;95787.97;5042210;28;20055;-68
2024/01/28 03:18:54;;;;;;;10.77;3.42;;;;;;;0.95;64.83;95790.56;5062858;28;20032;-68
2024/01/28 03:21:20;;;;;;;6.97;3.50;;;;;;;0.94;64.84;95799.97;5065955;28;20028;-68
2024/01/28 03:23:46;;;;;;;4.68;2.83;;;;;;;0.93;64.71;95806.00;5069011;28;20074;-67
2024/01/28 03:26:11;;;;;;;6.70;2.95;;;;;;;0.88;64.64;95795.88;5069136;28;20490;-67
2024/01/28 03:28:36;;;;;;;5.97;3.10;;;;;;;0.84;65.48;95804.53;5068837;28;20028;-68
2024/01/28 03:31:02;;;;;;;5.78;3.25;;;;;;;0.89;65.51;95792.47;5068751;28;20035;-68
2024/01/28 03:33:27;;;;;;;7.47;3.65;;;;;;;1.00;64.81;95804.06;5052363;28;20032;-67
2024/01/28 03:35:53;;;;;;;5.45;2.92;;;;;;;0.98;65.09;95805.88;5069162;28;20048;-68
2024/01/28 03:38:18;;;;;;;6.15;3.50;;;;;;;0.95;65.04;95816.16;5068905;28;20101;-68
2024/01/28 03:40:44;;;;;;;5.50;3.08;;;;;;;1.00;65.08;95819.44;5070289;28;20494;-68
2024/01/28 03:43:09;;;;;;;9.32;3.53;;;;;;;0.89;65.06;95802.69;5065780;28;20025;-68
2024/01/28 03:45:34;;;;;;;8.10;3.38;;;;;;;0.98;65.40;95808.44;5048790;28;20041;-68
2024/01/28 03:48:00;;;;;;;8.93;3.45;;;;;;;0.74;65.40;95808.25;5065162;28;20028;-68
2024/01/28 03:50:25;;;;;;;6.05;3.22;;;;;;;0.84;66.00;95812.22;5070041;28;20032;-68
2024/01/28 03:52:51;;;;;;;7.43;3.83;;;;;;;0.78;65.41;95807.28;5068538;28;20020;-67
2024/01/28 03:55:16;;;;;;;5.15;3.40;;;;;;;0.93;65.62;95812.84;5068915;28;20027;-68
2024/01/28 03:57:43;;;;;;;5.72;3.05;;;;;;;0.85;65.83;95806.22;5051638;28;20513;-68
2024/01/28 04:00:11;;;;;;;6.45;3.50;;;;;;;0.91;65.64;95807.75;5052510;28;20029;-68
2024/01/28 04:02:37;;;;;;;4.20;3.00;;;;;;;0.98;65.50;95806.69;5052018;28;20033;-68
2024/01/28 04:05:06;;;;;;;4.75;3.40;;;;;;;0.98;65.63;95818.66;5052180;28;20097;-68
2024/01/28 04:07:31;;;;;;;6.47;3.05;;;;;;;0.95;65.51;95816.16;5070328;28;20032;-67
2024/01/28 04:09:57;;;;;;;5.05;2.75;;;;;;;0.76;65.92;95813.31;5063873;28;20441;-68
2024/01/28 04:12:22;;;;;;;5.55;3.05;;;;;;;0.62;66.53;95834.16;5051706;28;20029;-68
2024/01/28 04:14:48;;;;;;;3.92;3.13;;;;;;;0.67;66.08;95847.69;5066910;28;20448;-68
2024/01/28 04:17:13;;;;;;;6.47;2.90;;;;;;;0.65;66.43;95834.91;5057752;28;20016;-68
2024/01/28 04:19:38;;;;;;;4.63;2.90;;;;;;;0.72;66.58;95845.81;5051913;28;20606;-68
2024/01/28 04:22:04;;;;;;;7.68;3.42;;;;;;;0.62;66.25;95847.78;5048013;28;20036;-68
2024/01/28 04:24:30;;;;;;;4.22;2.95;;;;;;;0.65;66.58;95839.19;5069588;28;20033;-68
2024/01/28 04:26:55;;;;;;;6.93;3.05;;;;;;;0.59;66.50;95855.56;5068390;28;20028;-68
2024/01/28 04:29:21;;;;;;;5.55;3.40;;;;;;;0.60;66.75;95854.66;5068484;28;20509;-68
2024/01/28 04:31:46;;;;;;;7.65;3.05;;;;;;;0.62;66.81;95847.78;5065633;28;20029;-68
2024/01/28 04:34:11;;;;;;;5.65;3.60;;;;;;;0.62;66.76;95857.19;5052916;28;20037;-68
2024/01/28 04:36:37;;;;;;;5.78;3.20;;;;;;;0.57;66.14;95861.59;5071862;28;20032;-68
2024/01/28 04:39:02;;;;;;;4.28;2.90;;;;;;;0.56;66.45;95844.56;5073019;28;20028;-68
2024/01/28 04:41:28;;;;;;;4.35;3.03;;;;;;;0.62;66.40;95855.47;5071111;28;20032;-68
2024/01/28 04:43:54;;;;;;;7.10;3.30;;;;;;;0.54;66.45;95851.44;5071834;28;20029;-68
2024/01/28 04:46:19;;;;;;;3.97;2.75;;;;;;;0.46;66.36;95845.69;5063854;28;20486;-68
2024/01/28 04:48:45;;;;;;;4.50;2.72;;;;;;;0.51;66.27;95848.97;5053089;28;20024;-68
2024/01/28 04:51:10;;;;;;;4.10;2.80;;;;;;;0.33;66.88;95838.34;5067600;28;20024;-68
2024/01/28 04:53:36;;;;;;;3.92;2.70;;;;;;;0.43;66.95;95847.44;5037167;28;20029;-68
2024/01/28 04:56:02;;;;;;;4.63;3.05;;;;;;;0.29;67.02;95844.41;5062239;28;20022;-68
2024/01/28 04:58:27;;;;;;;4.95;3.13;;;;;;;0.18;67.32;95831.09;5054570;28;20028;-67
2024/01/28 05:00:54;;;;;;;6.07;3.83;;;;;;;0.22;67.23;95858.22;5059146;28;20040;-68
2024/01/28 05:03:19;;;;;;;4.13;2.97;;;;;;;0.08;67.92;95853.47;5053740;28;20021;-68
2024/01/28 05:05:45;;;;;;;7.43;3.10;;;;;;;0.13;67.89;95855.91;5069064;28;20032;-67
2024/01/28 05:08:10;;;;;;;4.72;3.22;;;;;;;0.02;68.39;95866.41;5070085;28;20078;-68
2024/01/28 05:10:36;;;;;;;5.28;3.20;;;;;;;0.04;68.53;95864.66;5070173;28;20029;-68
2024/01/28 05:13:01;;;;;;;5.47;3.47;;;;;;;0.03;67.62;95868.09;5070356;28;20021;-71
2024/01/28 05:15:27;;;;;;;6.65;3.05;;;;;;;0.04;67.77;95874.03;5071319;28;20032;-66
2024/01/28 05:17:52;;;;;;;6.22;3.17;;;;;;;-0.13;68.19;95867.63;5060199;28;20033;-68
2024/01/28 05:20:18;;;;;;;5.32;3.35;;;;;;;-0.07;67.79;95866.63;5059441;28;20025;-68
2024/01/28 05:22:43;;;;;;;6.18;3.00;;;;;;;-0.10;67.82;95880.31;5047616;28;20033;-68
2024/01/28 05:25:09;;;;;;;4.57;3.22;;;;;;;-0.10;67.99;95882.88;5069675;28;20414;-67
2024/01/28 05:27:35;;;;;;;6.45;3.42;;;;;;;-0.18;67.90;95884.78;5064131;28;20035;-68
2024/01/28 05:30:01;;;;;;;5.75;3.50;;;;;;;-0.20;68.44;95888.22;5063340;28;20474;-68
2024/01/28 05:32:26;;;;;;;5.60;3.28;;;;;;;-0.08;67.69;95888.78;5062088;28;20036;-67
2024/01/28 05:34:51;;;;;;;5.25;2.92;;;;;;;-0.07;67.50;95880.25;5031098;28;20052;-68
2024/01/28 05:37:17;;;;;;;3.58;2.97;;;;;;;0.01;67.25;95886.91;5051638;28;20027;-68
2024/01/28 05:39:42;;;;;;;5.00;3.20;;;;;;;-0.02;67.47;95895.47;5065141;28;20020;-67
2024/01/28 05:42:08;;;;;;;8.38;4.20;;;;;;;-0.15;67.87;95900.03;5071289;28;20505;-68
2024/01/28 05:44:33;;;;;;;5.10;3.08;;;;;;;-0.20;67.84;95894.19;5063256;28;20036;-68
2024/01/28 05:46:59;;;;;;;7.32;3.70;;;;;;;-0.05;67.69;95904.03;5054041;28;20219;-67
2024/01/28 05:49:24;;;;;;;5.40;3.47;;;;;;;0.03;67.32;95908.97;5053744;28;20040;-68
2024/01/28 05:51:50;;;;;;;5.13;3.10;;;;;;;-0.31;67.45;95883.38;5050976;28;20035;-68
2024/01/28 05:54:15;;;;;;;4.85;3.70;;;;;;;-0.13;67.37;95902.56;5040155;28;20418;-68
2024/01/28 05:56:41;;;;;;;9.05;3.83;;;;;;;-0.26;67.76;95915.59;5067766;28;20040;-67
2024/01/28 05:59:06;;;;;;;5.43;3.33;;;;;;;-0.20;67.59;95917.16;5067821;28;20040;-68
2024/01/28 06:01:32;;;;;;;6.10;3.25;;;;;;;-0.09;67.88;95899.03;5059420;28;20033;-68
2024/01/28 06:03:57;;;;;;;4.88;3.08;;;;;;;-0.13;67.51;95923.00;5049366;28;20513;-66
2024/01/28 06:06:23;;;;;;;4.47;3.00;;;;;;;-0.21;67.36;95925.72;5069754;28;20025;-66
2024/01/28 06:08:48;;;;;;;6.40;3.35;;;;;;;-0.30;67.40;95898.69;5063272;28;20479;-68
2024/01/28 06:11:13;;;;;;;5.15;3.50;;;;;;;-0.11;67.55;95933.97;5068043;28;20570;-68
2024/01/28 06:13:39;;;;;;;7.47;3.00;;;;;;;-0.09;67.32;95934.78;5060638;28;20489;-69
2024/01/28 06:16:06;;;;;;;5.43;3.22;;;;;;;-0.13;68.07;95949.38;5046650;28;20025;-68
2024/01/28 06:18:31;;;;;;;5.72;3.15;;;;;;;-0.09;68.22;95953.50;5062602;28;20467;-69
2024/01/28 06:20:57;;;;;;;5.63;3.17;;;;;;;-0.13;68.22;95954.47;5069711;28;20135;-69
2024/01/28 06:23:22;;;;;;;5.50;3.15;;;;;;;-0.34;67.95;95912.38;5060666;28;20036;-74
2024/01/28 06:25:47;;;;;;;6.72;3.58;;;;;;;-0.06;68.33;95952.59;5065685;28;20036;-68
2024/01/28 06:28:14;;;;;;;5.38;3.17;;;;;;;0.09;67.54;95953.97;5064904;28;20032;-67
2024/01/28 06:30:39;;;;;;;6.40;3.83;;;;;;;0.01;67.70;95963.53;5065762;28;20110;-67
2024/01/28 06:33:05;;;;;;;4.10;3.50;;;;;;;0.15;67.32;95953.84;5042724;28;20516;-68
2024/01/28 06:35:30;;;;;;;7.00;3.88;;;;;;;0.19;67.45;95957.97;5058594;28;20059;-69
2024/01/28 06:37:56;;;;;;;7.72;3.90;;;;;;;0.14;66.79;95954.69;5045368;28;20039;-69
2024/01/28 06:40:21;;;;;;;6.45;3.70;;;;;;;0.10;67.68;95953.09;5041245;28;20037;-68
2024/01/28 06:42:46;;;;;;;6.28;3.78;;;;;;;0.27;67.37;95961.19;5042429;28;20489;-68
2024/01/28 06:45:12;;;;;;;8.55;3.50;;;;;;;0.12;67.23;95951.34;5061332;28;20086;-68
2024/01/28 06:47:37;;;;;;;6.20;3.30;;;;;;;0.14;67.67;95964.91;5048357;28;20021;-68
2024/01/28 06:50:04;;;;;;;7.13;4.20;;;;;;;0.16;67.52;95968.28;5063781;28;20117;-69
2024/01/28 06:52:29;;;;;;;6.50;3.70;;;;;;;0.13;67.81;95960.69;5058454;28;20036;-69
2024/01/28 06:54:55;;;;;;;3.75;3.10;;;;;;;0.27;67.22;95961.19;5050364;28;20040;-69
2024/01/28 06:57:20;;;;;;;9.75;3.45;;;;;;;0.30;67.54;95976.44;5049163;28;20554;-70
2024/01/28 06:59:45;;;;;;;4.60;3.80;;;;;;;0.34;67.57;95975.50;5045097;28;20033;-69
2024/01/28 07:02:11;;;;;;;7.40;3.60;;;;;;;0.27;67.58;95976.53;5049624;28;20020;-69
2024/01/28 07:04:37;;;;;;;7.22;3.85;;;;;;;0.39;66.92;95973.69;5041096;28;20031;-68
2024/01/28 07:07:03;;;;;;;5.10;3.53;;;;;;;0.39;66.74;95970.28;5069129;28;20033;-69
2024/01/28 07:09:29;;;;;;;7.53;5.35;;;;;;;0.28;66.79;95980.78;5061194;28;20043;-68
2024/01/28 07:11:54;;;;;;;6.75;3.75;;;;;;;0.48;66.60;95964.94;5068675;28;20032;-69
2024/01/28 07:14:20;;;;;;;5.85;4.05;;;;;;;0.50;67.04;95982.78;5059701;28;20033;-69
2024/01/28 07:16:45;;;;;;;5.43;3.38;;;;;;;0.56;67.00;95978.38;5049246;28;20029;-68
2024/01/28 07:19:11;;;;;;;9.30;4.78;;;;;;;0.51;66.58;95987.06;5062260;28;20029;-69
2024/01/28 07:21:36;;;;;;;5.28;3.60;;;;;;;0.69;66.44;95990.84;5061002;28;20414;-69
2024/01/28 07:24:03;;;;;;;9.15;3.88;;;;;;;0.38;66.84;95956.66;5059647;28;20037;-69
2024/01/28 07:26:29;;;;;;;5.18;3.60;;;;;;;0.66;66.28;95990.03;5066702;28;20040;-68
2024/01/28 07:28:54;;;;;;;12.02;6.72;;;;;;;0.67;65.78;96003.69;5063359;28;20040;-69
2024/01/28 07:31:20;;;;;;;8.18;4.18;;;;;;;0.64;65.79;96002.06;5053821;28;20025;-69
2024/01/28 07:33:45;;;;;;;5.43;4.22;;;;;;;0.57;66.80;95989.44;5064492;28;20410;-69
2024/01/28 07:36:10;;;;;;;6.32;3.78;;;;;;;0.68;66.11;96001.97;5035069;28;20502;-68
2024/01/28 07:38:36;;;;;;;6.47;4.40;;;;;;;0.70;66.24;95995.94;5062685;28;20052;-69
2024/01/28 07:41:01;;;;;;;6.85;4.22;;;;;;;0.75;65.80;96006.88;5044118;28;20029;-68
2024/01/28 07:43:27;;;;;;;14.10;7.35;;;;;;;0.73;65.63;96002.69;5039104;28;20056;-68
2024/01/28 07:45:52;;;;;;;14.35;6.85;;;;;;;0.85;65.77;96010.88;5062529;28;20037;-69
2024/01/28 07:48:17;;;;;;;8.00;4.10;;;;;;;0.85;65.79;96022.84;5061914;28;20457;-69
2024/01/28 07:50:43;;;;;;;4.80;3.60;;;;;;;0.99;65.08;96014.81;5064307;28;20048;-68
2024/01/28 07:53:09;;;;;;;5.57;3.63;;;;;;;1.02;64.94;96013.00;5059574;28;20029;-69
2024/01/28 07:55:34;;;;;;;11.43;5.13;;;;;;;0.73;65.14;95969.44;5053502;28;20037;-68
2024/01/28 07:57:59;;;;;;;6.70;3.97;;;;;;;1.03;65.08;96006.16;5068448;28;20472;-69
2024/01/28 08:00:25;;;;;;;14.18;7.35;;;;;;;0.96;64.72;96007.22;5059661;28;20033;-69
2024/01/28 08:02:51;;;;;;;16.15;7.55;;;;;;;1.01;65.13;96011.34;5037512;28;20066;-69
2024/01/28 08:05:17;;;;;;;7.80;4.65;;;;;;;1.02;65.12;96017.28;5065981;28;20082;-69
2024/01/28 08:07:42;;;;;;;6.38;4.05;;;;;;;1.19;64.67;96006.59;5061228;28;20029;-69
2024/01/28 08:10:09;;;;;;;5.72;3.95;;;;;;;1.24;63.86;96003.03;5060551;28;20520;-69
2024/01/28 08:12:34;;;;;;;8.77;4.10;;;;;;;1.27;64.84;96018.31;5034143;28;20073;-69
2024/01/28 08:14:59;;;;;;;8.57;4.32;;;;;;;1.31;64.68;96008.84;5073696;28;20036;-69
2024/01/28 08:17:26;;;;;;;6.60;3.92;;;;;;;1.41;63.98;96014.53;5072293;28;20472;-69
2024/01/28 08:19:51;;;;;;;9.50;4.32;;;;;;;1.44;63.84;96010.16;5068974;28;20037;-69
2024/01/28 08:22:17;;;;;;;4.47;3.05;;;;;;;1.40;63.32;96028.22;5065797;28;20063;-69
2024/01/28 08:24:42;;;;;;;5.13;3.60;;;;;;;1.37;63.56;96025.75;5068379;28;20401;-69
2024/01/28 08:27:08;;;;;;;7.13;4.55;;;;;;;1.42;63.56;96017.06;5055748;28;20492;-69
2024/01/28 08:29:33;;;;;;;6.53;3.80;;;;;;;1.55;63.80;96023.50;5048365;28;20198;-69
2024/01/28 08:31:59;;;;;;;12.98;6.30;;;;;;;1.36;63.95;96018.94;5069265;28;20029;-69
2024/01/28 08:34:24;;;;;;;9.75;4.78;;;;;;;1.68;63.50;96026.56;5063694;28;20059;-69
2024/01/28 08:36:50;;;;;;;18.92;11.00;;;;;;;1.72;62.99;96035.00;5051164;28;20028;-69
2024/01/28 08:39:15;;;;;;;18.63;9.00;;;;;;;1.71;63.21;96030.75;5071191;28;20033;-69
2024/01/28 08:41:41;;;;;;;40.70;18.50;;;;;;;1.44;63.73;95999.06;5052529;28;20046;-69
2024/01/28 08:44:07;;;;;;;18.85;8.27;;;;;;;1.59;63.65;96021.72;5061049;28;20410;-69
2024/01/28 08:46:32;;;;;;;13.07;7.60;;;;;;;1.64;64.15;96045.44;5043139;28;20438;-69
2024/01/28 08:48:58;;;;;;;9.80;5.53;;;;;;;1.73;63.55;96042.66;5056900;28;20064;-69
2024/01/28 08:51:23;;;;;;;14.18;8.27;;;;;;;1.81;63.29;96039.84;5043838;28;20043;-69
2024/01/28 08:53:49;;;;;;;14.43;7.22;;;;;;;1.79;63.31;96042.47;5064119;28;20043;-69
2024/01/28 08:56:15;;;;;;;14.15;8.02;;;;;;;1.92;63.24;96047.22;5054320;28;20035;-69
2024/01/28 08:58:40;;;;;;;8.10;4.50;;;;;;;1.94;62.36;96046.28;5057613;28;20607;-69
2024/01/28 09:01:06;;;;;;;14.38;7.05;;;;;;;1.73;62.97;96052.91;5070760;28;20054;-68
2024/01/28 09:03:31;;;;;;;22.60;9.57;;;;;;;1.75;62.72;96055.41;5048403;28;20070;-69
2024/01/28 09:05:57;;;;;;;7.05;4.53;;;;;;;1.86;62.94;96052.53;5062435;28;20079;-68
2024/01/28 09:08:22;;;;;;;7.68;4.78;;;;;;;1.97;62.40;96043.63;5054691;28;20414;-69
2024/01/28 09:10:48;;;;;;;8.02;4.30;;;;;;;2.01;61.91;96052.09;5043903;28;20052;-69
2024/01/28 09:13:13;;;;;;;10.32;5.43;;;;;;;2.08;62.21;96058.69;5050129;28;20021;-69
2024/01/28 09:15:38;;;;;;;12.18;6.22;;;;;;;2.05;61.62;96051.09;5062709;28;20490;-69
2024/01/28 09:18:04;;;;;;;9.98;5.75;;;;;;;1.79;62.24;96039.06;5050485;28;20488;-69
2024/01/28 09:20:30;;;;;;;15.88;6.97;;;;;;;1.89;62.42;96057.56;5064946;28;20040;-69
2024/01/28 09:22:55;;;;;;;7.50;4.70;;;;;;;2.16;62.51;96051.63;5052818;28;20025;-69
2024/01/28 09:25:21;;;;;;;9.60;5.13;;;;;;;2.25;62.31;96047.94;5060890;28;20411;-68
2024/01/28 09:27:48;;;;;;;7.03;5.20;;;;;;;2.41;61.61;96050.88;5068209;28;20029;-69
2024/01/28 09:30:14;;;;;;;7.18;4.40;;;;;;;2.53;60.88;96052.22;5067329;28;20040;-68
2024/01/28 09:32:39;;;;;;;11.52;5.95;;;;;;;2.52;61.07;96064.22;5059796;28;20029;-68
2024/01/28 09:35:05;;;;;;;7.13;3.90;;;;;;;2.52;59.64;96053.13;5067375;28;20510;-70
2024/01/28 09:37:30;;;;;;;7.75;4.90;;;;;;;2.54;59.79;96057.31;5063906;28;20032;-68
2024/01/28 09:39:56;;;;;;;9.85;6.70;;;;;;;2.60;59.73;96051.97;5067641;28;20399;-68
2024/01/28 09:42:30;;;;;;;9.00;7.30;;;;;;;2.65;59.38;96050.09;5066626;28;20029;-69
2024/01/28 09:44:58;;;;;;;47.20;20.38;;;;;;;2.79;59.20;96041.13;5049386;28;20129;-68
2024/01/28 09:47:23;;;;;;;35.97;22.17;;;;;;;2.90;59.45;96046.75;5048715;28;20116;-68
2024/01/28 09:49:49;;;;;;;19.30;11.27;;;;;;;2.61;59.51;96037.41;5063036;28;20040;-68
2024/01/28 09:52:16;;;;;;;17.85;12.32;;;;;;;2.82;59.64;96036.72;5062674;28;20414;-68
2024/01/28 09:54:41;;;;;;;62.40;37.97;;;;;;;2.93;58.78;96040.69;5039153;28;20057;-68
2024/01/28 09:57:08;;;;;;;54.55;36.65;;;;;;;3.06;59.30;96044.50;5063487;28;20477;-68
2024/01/28 09:59:35;;;;;;;85.07;52.55;;;;;;;3.07;59.29;96041.06;5061884;28;20054;-68
2024/01/28 10:02:01;;;;;;;31.63;19.15;;;;;;;3.15;58.75;96039.06;5066620;28;20437;-68
2024/01/28 10:04:27;;;;;;;5.70;4.15;;;;;;;3.19;58.04;96048.31;5049807;28;20040;-68
2024/01/28 10:06:57;;;;;;;9.30;6.22;;;;;;;3.16;58.47;96039.91;5056232;28;20497;-68
2024/01/28 10:09:23;;;;;;;12.93;8.90;;;;;;;2.86;59.03;96043.41;5069876;28;20033;-68
2024/01/28 10:11:48;;;;;;;13.32;8.30;;;;;;;2.91;59.10;96038.16;5058226;28;20021;-68
2024/01/28 10:14:14;;;;;;;11.60;8.15;;;;;;;2.93;58.95;96041.50;5058179;28;20079;-67
2024/01/28 10:16:39;;;;;;;13.77;8.25;;;;;;;2.93;58.72;96030.41;5062286;28;20036;-70
2024/01/28 10:19:05;;;;;;;22.92;12.77;;;;;;;2.79;58.76;96020.59;5069714;28;20032;-69
2024/01/28 10:21:31;;;;;;;7.50;5.00;;;;;;;2.90;58.78;96042.44;5066967;28;20490;-69
2024/01/28 10:23:57;;;;;;;14.70;9.23;;;;;;;2.88;59.01;96040.81;5031007;28;20040;-68
2024/01/28 10:26:23;;;;;;;8.88;5.45;;;;;;;2.94;59.00;96039.78;5051822;28;20043;-68
2024/01/28 10:28:51;;;;;;;5.65;4.00;;;;;;;2.77;58.08;96012.09;5050355;28;20028;-67
2024/01/28 10:31:17;;;;;;;5.63;3.60;;;;;;;2.98;58.26;96019.09;5051117;28;20035;-67
2024/01/28 10:33:43;;;;;;;6.95;4.70;;;;;;;2.80;58.63;96033.38;5059659;28;20029;-67
2024/01/28 10:36:08;;;;;;;5.55;3.88;;;;;;;2.83;59.08;96038.41;5050617;28;20075;-68
2024/01/28 10:38:34;;;;;;;9.18;4.60;;;;;;;2.86;58.50;96027.19;5033443;28;20077;-68
2024/01/28 10:40:59;;;;;;;5.22;3.53;;;;;;;2.89;58.17;96024.53;5050301;28;20434;-68
2024/01/28 10:43:32;;;;;;;6.70;4.70;;;;;;;2.89;58.68;96021.94;5060053;28;20032;-68
2024/01/28 10:45:57;;;;;;;6.00;3.35;;;;;;;2.77;58.42;96017.25;5048044;28;20743;-68
2024/01/28 10:48:23;;;;;;;5.35;3.75;;;;;;;3.03;57.99;96030.03;5035026;28;20032;-68
2024/01/28 10:50:48;;;;;;;11.18;7.20;;;;;;;3.13;58.28;96031.41;5067914;28;20036;-68
2024/01/28 10:53:14;;;;;;;8.63;5.28;;;;;;;2.99;57.39;96010.50;5043165;28;20040;-70
2024/01/28 10:55:39;;;;;;;12.15;7.35;;;;;;;3.04;58.25;96023.19;5032846;28;20037;-69
2024/01/28 10:58:05;;;;;;;8.10;3.90;;;;;;;2.90;58.74;96021.09;5042405;28;20864;-68
2024/01/28 11:00:30;;;;;;;4.90;3.35;;;;;;;2.80;59.24;95997.44;5063667;28;20041;-68
2024/01/28 11:02:58;;;;;;;7.00;4.10;;;;;;;2.93;59.27;96015.84;5034583;28;20410;-68
2024/01/28 11:05:24;;;;;;;6.28;4.75;;;;;;;3.11;59.15;96037.47;5044150;28;20044;-68
2024/01/28 11:07:49;;;;;;;5.63;4.03;;;;;;;3.16;58.27;96029.63;5048812;28;20508;-68
2024/01/28 11:10:15;;;;;;;12.93;4.65;;;;;;;3.25;58.59;96016.47;5064722;28;20063;-68
2024/01/28 11:12:40;;;;;;;8.68;5.32;;;;;;;3.30;58.04;96022.28;5027995;28;20037;-68
2024/01/28 11:15:11;;;;;;;7.70;5.00;;;;;;;3.31;58.37;96024.78;5052127;28;20045;-68
2024/01/28 11:17:37;;;;;;;7.07;4.32;;;;;;;3.38;58.29;96016.88;5044364;28;20068;-68
2024/01/28 11:20:12;;;;;;;9.18;5.35;;;;;;;2.99;59.14;96020.75;5062588;28;20478;-67
2024/01/28 11:22:50;;;;;;;8.18;4.55;;;;;;;3.01;59.74;96011.28;5045543;28;20139;-68
2024/01/28 11:25:28;;;;;;;5.65;3.90;;;;;;;3.04;59.00;96024.00;5055904;28;20037;-68
2024/01/28 11:28:01;;;;;;;8.57;4.47;;;;;;;3.31;58.06;96014.50;5038410;28;20578;-67
2024/01/28 11:30:26;;;;;;;7.95;4.57;;;;;;;3.34;58.07;96013.56;5054193;28;20049;-67
2024/01/28 11:33:08;;;;;;;7.50;4.80;;;;;;;3.20;58.57;96010.63;5033578;28;20518;-69